Time;durP1;ratioP1;P1;durP2;ratioP2;P2;SDS_P1;SDS_P2;PMS_P1;PMS_P2;Temp;Humidity;BMP_temperature;BMP_pressure;BME280_temperature;BME280_humidity;BME280_pressure;Samples;Min_cycle;Max_cycle;Signal;HPM_P1;HPM_P2
2022/07/05 00:01:09;;;;;;;4.00;2.20;;;20.40;76.10;;;;;;5079469;28;20036;-87
2022/07/05 00:03:34;;;;;;;3.78;2.20;;;20.40;76.20;;;;;;5062976;28;20032;-87
2022/07/05 00:06:00;;;;;;;5.90;2.20;;;20.30;76.40;;;;;;5079712;28;20032;-87
2022/07/05 00:08:26;;;;;;;5.20;2.30;;;20.30;77.00;;;;;;5079396;28;20039;-87
2022/07/05 00:10:52;;;;;;;7.45;2.60;;;20.20;77.60;;;;;;5079161;28;20020;-88
2022/07/05 00:13:17;;;;;;;7.93;2.17;;;20.20;77.90;;;;;;5077819;28;20437;-88
2022/07/05 00:15:43;;;;;;;3.50;1.90;;;20.20;78.30;;;;;;5062819;28;20481;-88
2022/07/05 00:18:09;;;;;;;3.33;2.15;;;20.10;78.70;;;;;;5063007;28;20016;-88
2022/07/05 00:20:35;;;;;;;3.05;2.15;;;20.10;79.20;;;;;;5113004;28;20048;-88
2022/07/05 00:23:01;;;;;;;3.78;2.13;;;20.00;79.10;;;;;;5079374;28;20465;-88
2022/07/05 00:28:48;;;;;;;6.03;2.40;;;19.90;79.50;;;;;;5092644;28;20015;-88
2022/07/05 00:31:14;;;;;;;4.38;2.08;;;19.90;79.80;;;;;;5062159;28;20103;-88
2022/07/05 00:33:52;;;;;;;4.05;2.13;;;19.80;80.20;;;;;;5078006;28;20073;-87
2022/07/05 00:36:18;;;;;;;6.47;2.13;;;19.80;80.30;;;;;;5062357;28;20020;-88
2022/07/05 00:38:44;;;;;;;3.28;2.30;;;19.70;80.40;;;;;;5062515;28;20082;-88
2022/07/05 00:41:09;;;;;;;4.07;2.40;;;19.70;80.70;;;;;;5079819;28;20024;-87
2022/07/05 00:43:35;;;;;;;6.57;2.30;;;19.70;81.10;;;;;;5079152;28;20126;-88
2022/07/05 00:46:01;;;;;;;3.03;2.40;;;19.60;81.20;;;;;;5079136;28;20470;-88
2022/07/05 00:48:26;;;;;;;5.00;2.25;;;19.60;81.20;;;;;;5062925;28;20055;-87
2022/07/05 00:50:52;;;;;;;7.47;2.50;;;19.60;81.40;;;;;;5070873;28;20028;-88
2022/07/05 00:53:18;;;;;;;3.60;2.38;;;19.50;81.60;;;;;;5098419;28;20041;-87
2022/07/05 00:55:44;;;;;;;7.15;2.45;;;19.40;81.90;;;;;;5082740;28;20470;-88
2022/07/05 00:58:11;;;;;;;5.00;2.45;;;19.40;81.80;;;;;;5094539;28;20012;-87
2022/07/05 01:00:37;;;;;;;5.50;2.50;;;19.30;82.10;;;;;;5076240;28;20028;-87
2022/07/05 01:03:04;;;;;;;3.33;2.35;;;19.30;82.30;;;;;;5092250;28;20103;-87
2022/07/05 01:05:32;;;;;;;5.00;2.15;;;19.20;82.60;;;;;;5061841;28;20024;-88
2022/07/05 01:08:00;;;;;;;8.10;2.75;;;19.20;83.00;;;;;;5078567;28;20130;-87
2022/07/05 01:10:27;;;;;;;4.03;2.30;;;19.10;83.10;;;;;;5077880;28;20074;-88
2022/07/05 01:12:53;;;;;;;4.45;2.67;;;19.10;83.30;;;;;;5096575;28;20017;-88
2022/07/05 01:15:21;;;;;;;5.35;2.45;;;19.10;83.60;;;;;;5078475;28;20016;-87
2022/07/05 01:17:53;;;;;;;5.03;2.67;;;19.00;83.80;;;;;;5077935;28;20058;-87
2022/07/05 01:20:19;;;;;;;6.63;2.70;;;19.00;84.10;;;;;;5061440;28;20028;-88
2022/07/05 01:23:02;;;;;;;3.83;2.17;;;19.00;84.40;;;;;;5061754;28;20092;-88
2022/07/05 01:25:29;;;;;;;4.60;2.60;;;18.90;85.00;;;;;;5096735;28;20377;-87
2022/07/05 01:27:56;;;;;;;6.57;2.65;;;18.90;85.40;;;;;;5078883;28;20021;-88
2022/07/05 01:30:22;;;;;;;5.57;2.58;;;18.90;85.70;;;;;;5062185;28;20165;-88
2022/07/05 01:32:49;;;;;;;5.38;3.05;;;18.80;86.00;;;;;;5078799;28;20476;-87
2022/07/05 01:35:20;;;;;;;8.57;3.60;;;18.80;87.00;;;;;;5077921;28;20031;-88
2022/07/05 01:37:47;;;;;;;4.82;3.25;;;18.80;86.50;;;;;;5095796;28;20507;-88
2022/07/05 01:40:13;;;;;;;8.40;4.10;;;18.70;86.60;;;;;;5061075;28;20042;-88
2022/07/05 01:42:40;;;;;;;4.82;3.05;;;18.70;86.80;;;;;;5094568;28;20092;-88
2022/07/05 01:45:06;;;;;;;4.88;2.80;;;18.70;87.00;;;;;;5060362;28;20506;-87
2022/07/05 01:47:38;;;;;;;4.32;2.90;;;18.70;87.60;;;;;;5094377;28;20085;-88
2022/07/05 01:50:07;;;;;;;5.88;3.08;;;18.60;87.90;;;;;;5077661;28;20469;-88
2022/07/05 01:52:36;;;;;;;4.35;2.88;;;18.60;88.30;;;;;;5095739;28;20469;-88
2022/07/05 01:55:03;;;;;;;6.15;3.00;;;18.50;88.60;;;;;;5077376;28;20047;-87
2022/07/05 01:57:29;;;;;;;6.07;3.65;;;18.50;89.00;;;;;;5060494;28;20031;-88
2022/07/05 01:59:54;;;;;;;7.90;3.50;;;18.50;89.20;;;;;;5094912;28;20028;-88
2022/07/05 02:02:20;;;;;;;4.88;3.08;;;18.40;89.50;;;;;;5077003;28;20127;-88
2022/07/05 02:04:46;;;;;;;4.10;2.83;;;18.40;89.80;;;;;;5060614;28;20116;-88
2022/07/05 02:07:11;;;;;;;4.65;2.85;;;18.40;90.00;;;;;;5077342;28;20028;-88
2022/07/05 02:09:38;;;;;;;4.85;3.30;;;18.40;90.20;;;;;;5095003;28;20085;-88
2022/07/05 02:12:04;;;;;;;4.25;3.20;;;18.40;90.40;;;;;;5076950;28;20044;-88
2022/07/05 02:14:31;;;;;;;5.63;3.47;;;18.30;90.40;;;;;;5076929;28;20028;-88
2022/07/05 02:16:56;;;;;;;6.45;3.53;;;18.30;90.60;;;;;;5077049;28;20032;-89
2022/07/05 02:19:22;;;;;;;6.57;3.45;;;18.20;90.80;;;;;;5060113;28;20020;-89
2022/07/05 02:21:48;;;;;;;5.28;3.13;;;18.20;90.90;;;;;;5076886;28;20563;-88
2022/07/05 02:24:14;;;;;;;5.90;3.42;;;18.20;91.00;;;;;;5076945;28;20019;-88
2022/07/05 02:26:52;;;;;;;6.68;3.45;;;18.10;91.10;;;;;;5094061;28;20028;-88
2022/07/05 02:29:17;;;;;;;4.28;3.20;;;18.10;91.30;;;;;;5076862;28;20097;-88
2022/07/05 02:31:43;;;;;;;6.10;3.80;;;18.10;91.40;;;;;;5076627;28;20052;-88
2022/07/05 02:34:09;;;;;;;4.85;3.22;;;18.10;91.50;;;;;;5076867;28;20465;-88
2022/07/05 02:36:34;;;;;;;6.75;3.78;;;18.00;91.60;;;;;;5064943;22;20402;-87
2022/07/05 02:39:00;;;;;;;7.07;4.40;;;18.00;91.60;;;;;;5013466;28;20033;-87
2022/07/05 02:41:28;;;;;;;8.98;4.78;;;17.90;91.70;;;;;;5002546;28;20026;-88
2022/07/05 02:43:54;;;;;;;7.75;4.90;;;17.90;91.80;;;;;;5021104;28;20041;-87
2022/07/05 02:46:20;;;;;;;9.02;4.97;;;17.90;91.90;;;;;;5013633;28;20026;-88
2022/07/05 02:48:45;;;;;;;8.55;5.00;;;17.90;92.10;;;;;;4997217;28;20048;-88
2022/07/05 02:51:11;;;;;;;7.95;4.50;;;17.80;92.30;;;;;;5010523;28;20032;-88
2022/07/05 02:53:37;;;;;;;6.90;4.28;;;17.80;92.40;;;;;;4996917;28;20501;-88
2022/07/05 02:56:03;;;;;;;6.70;4.50;;;17.80;92.50;;;;;;5010175;28;20072;-87
2022/07/05 02:58:28;;;;;;;6.47;4.60;;;17.80;92.80;;;;;;5013553;28;20029;-88
2022/07/05 03:00:54;;;;;;;8.60;5.35;;;17.80;93.10;;;;;;5025167;28;20560;-87
2022/07/05 03:03:20;;;;;;;10.52;4.85;;;17.80;93.30;;;;;;5015206;28;20018;-87
2022/07/05 03:05:45;;;;;;;6.20;4.22;;;17.80;93.50;;;;;;4997193;28;20026;-88
2022/07/05 03:08:11;;;;;;;6.53;4.30;;;17.80;93.60;;;;;;4997482;28;20435;-87
2022/07/05 03:10:38;;;;;;;5.18;3.75;;;17.80;93.60;;;;;;5001322;28;20022;-87
2022/07/05 03:13:05;;;;;;;7.10;4.47;;;17.70;93.50;;;;;;5011221;28;20022;-86
2022/07/05 03:15:30;;;;;;;7.25;4.20;;;17.70;93.60;;;;;;5019993;28;20033;-87
2022/07/05 03:17:56;;;;;;;6.30;4.57;;;17.60;93.70;;;;;;5008007;28;20026;-86
2022/07/05 03:20:22;;;;;;;7.30;4.80;;;17.60;93.80;;;;;;5029298;28;20076;-87
2022/07/05 03:22:47;;;;;;;6.22;4.38;;;17.60;94.00;;;;;;5014217;28;20152;-87
2022/07/05 03:25:13;;;;;;;6.93;4.80;;;17.50;94.10;;;;;;4995846;28;20442;-87
2022/07/05 03:27:39;;;;;;;6.53;4.47;;;17.60;94.10;;;;;;5012827;28;20038;-87
2022/07/05 03:30:05;;;;;;;8.35;4.63;;;17.50;94.20;;;;;;5011213;28;20056;-88
2022/07/05 03:32:30;;;;;;;7.28;4.53;;;17.50;94.40;;;;;;5016260;28;20030;-88
2022/07/05 03:34:56;;;;;;;6.00;4.60;;;17.40;94.60;;;;;;5013085;28;20046;-87
2022/07/05 03:37:22;;;;;;;7.30;4.30;;;17.40;95.00;;;;;;4996934;28;20091;-87
2022/07/05 03:40:06;;;;;;;8.05;4.20;;;17.40;95.00;;;;;;4994335;28;20034;-88
2022/07/05 03:42:34;;;;;;;8.57;4.50;;;17.40;95.50;;;;;;5040875;28;20120;-88
2022/07/05 03:44:59;;;;;;;7.93;4.82;;;17.40;95.40;;;;;;4998764;28;20022;-88
2022/07/05 03:47:25;;;;;;;7.57;4.82;;;17.40;95.60;;;;;;5014062;28;20041;-87
2022/07/05 03:49:51;;;;;;;6.38;4.22;;;17.40;95.80;;;;;;5014322;28;20034;-87
2022/07/05 03:52:17;;;;;;;7.03;4.72;;;17.40;96.00;;;;;;4998745;28;20487;-88
2022/07/05 03:54:44;;;;;;;6.82;4.43;;;17.40;96.10;;;;;;5013870;28;20072;-88
2022/07/05 04:00:32;;;;;;;7.40;4.70;;;17.40;96.50;;;;;;5013026;28;20033;-87
2022/07/05 04:02:57;;;;;;;6.72;4.65;;;17.40;96.70;;;;;;4997496;28;20038;-87
2022/07/05 04:05:23;;;;;;;6.38;4.20;;;17.40;97.00;;;;;;4998164;28;20098;-87
2022/07/05 04:07:55;;;;;;;7.15;4.75;;;17.40;97.60;;;;;;5014309;28;20463;-87
2022/07/05 04:10:23;;;;;;;6.25;4.65;;;17.40;97.50;;;;;;5056605;28;20476;-88
2022/07/05 04:12:48;;;;;;;6.20;4.03;;;17.40;97.50;;;;;;5019512;28;20418;-87
2022/07/05 04:15:14;;;;;;;8.73;5.28;;;17.40;97.50;;;;;;5027155;28;20030;-87
2022/07/05 04:18:00;;;;;;;5.60;4.20;;;17.30;97.60;;;;;;5015801;28;20040;-87
2022/07/05 04:20:26;;;;;;;7.03;4.30;;;17.30;97.90;;;;;;5016806;28;20041;-88
2022/07/05 04:22:52;;;;;;;8.93;4.30;;;17.20;98.10;;;;;;5031456;28;20462;-88
2022/07/05 04:25:18;;;;;;;7.60;5.07;;;17.20;98.50;;;;;;5011799;28;20495;-87
2022/07/05 04:27:44;;;;;;;6.93;4.30;;;17.20;98.70;;;;;;4999711;28;20029;-88
2022/07/05 04:30:12;;;;;;;9.68;4.53;;;17.30;98.90;;;;;;5021313;28;20077;-87
2022/07/05 04:32:38;;;;;;;7.85;5.30;;;17.30;99.00;;;;;;5035568;28;20021;-87
2022/07/05 04:35:04;;;;;;;8.95;5.10;;;17.20;99.10;;;;;;5001023;28;20113;-87
2022/07/05 04:37:49;;;;;;;6.45;4.32;;;17.20;99.30;;;;;;4989207;28;20515;-87
2022/07/05 04:40:15;;;;;;;6.10;4.50;;;17.20;99.40;;;;;;5044327;28;20041;-87
2022/07/05 04:46:02;;;;;;;6.88;4.95;;;17.20;99.60;;;;;;5011956;28;20472;-87
2022/07/05 04:48:28;;;;;;;6.60;5.15;;;17.20;99.70;;;;;;5027163;28;20030;-87
2022/07/05 04:50:54;;;;;;;9.75;5.47;;;17.20;99.80;;;;;;4998929;28;20033;-87
2022/07/05 04:53:20;;;;;;;7.35;5.43;;;17.20;99.90;;;;;;4999010;28;20041;-87
2022/07/05 04:55:45;;;;;;;7.38;5.07;;;17.20;99.90;;;;;;5015389;28;20033;-88
2022/07/05 04:58:11;;;;;;;7.78;5.38;;;17.10;99.90;;;;;;5015210;28;20025;-87
2022/07/05 05:00:37;;;;;;;8.07;6.18;;;17.20;99.90;;;;;;5021074;28;20034;-87
2022/07/05 05:03:05;;;;;;;7.53;5.70;;;17.10;99.90;;;;;;4997824;28;20446;-88
2022/07/05 05:05:59;;;;;;;7.82;6.35;;;17.20;99.90;;;;;;4978834;28;20476;-88
2022/07/05 05:08:25;;;;;;;9.05;6.00;;;17.20;99.90;;;;;;5009818;28;20027;-88
2022/07/05 05:10:51;;;;;;;7.40;5.43;;;17.20;99.90;;;;;;4995880;28;20034;-88
2022/07/05 05:13:16;;;;;;;9.07;5.88;;;17.20;99.90;;;;;;5011413;28;20026;-87
2022/07/05 05:15:42;;;;;;;7.38;5.93;;;17.20;99.90;;;;;;5006128;28;20090;-88
2022/07/05 05:18:08;;;;;;;7.75;5.30;;;17.20;99.90;;;;;;4978688;28;20054;-88
2022/07/05 05:20:33;;;;;;;11.07;6.35;;;17.30;99.90;;;;;;5013167;28;20030;-88
2022/07/05 05:22:59;;;;;;;10.05;6.00;;;17.30;99.90;;;;;;4980404;28;20503;-88
2022/07/05 05:25:28;;;;;;;11.63;7.20;;;17.30;99.90;;;;;;5007919;28;20076;-88
2022/07/05 05:27:54;;;;;;;11.73;7.28;;;17.40;99.90;;;;;;5015129;28;20022;-88
2022/07/05 05:30:20;;;;;;;11.23;7.53;;;17.40;99.90;;;;;;4998505;28;20024;-87
2022/07/05 05:32:45;;;;;;;11.02;8.32;;;17.40;99.90;;;;;;5015523;28;20040;-88
2022/07/05 05:35:11;;;;;;;14.73;10.77;;;17.40;99.90;;;;;;5031345;28;20491;-88
2022/07/05 05:37:54;;;;;;;13.57;9.95;;;17.40;99.90;;;;;;5000182;28;20033;-88
2022/07/05 05:40:21;;;;;;;15.25;10.13;;;17.40;99.90;;;;;;5014736;28;20026;-88
2022/07/05 05:42:47;;;;;;;15.75;10.80;;;17.40;99.90;;;;;;4999090;28;20034;-88
2022/07/05 05:45:13;;;;;;;15.00;10.35;;;17.50;99.90;;;;;;5017615;28;20083;-88
2022/07/05 05:47:47;;;;;;;14.25;10.40;;;17.50;99.90;;;;;;5034151;28;20104;-88
2022/07/05 05:50:13;;;;;;;16.50;10.77;;;17.50;99.90;;;;;;5035299;28;20021;-88
2022/07/05 05:52:38;;;;;;;14.80;10.02;;;17.50;99.90;;;;;;5018187;28;20076;-88
2022/07/05 05:55:05;;;;;;;14.77;9.98;;;17.50;99.90;;;;;;5014117;28;20029;-88
2022/07/05 05:57:33;;;;;;;12.13;9.85;;;17.50;99.90;;;;;;5016926;28;20033;-88
2022/07/05 05:59:59;;;;;;;13.27;10.07;;;17.50;99.90;;;;;;5017453;28;20079;-89
2022/07/05 06:02:24;;;;;;;12.68;9.32;;;17.60;99.90;;;;;;5016253;28;20081;-88
2022/07/05 06:04:50;;;;;;;11.95;9.95;;;17.60;99.90;;;;;;5012844;28;20029;-88
2022/07/05 06:07:16;;;;;;;10.82;8.88;;;17.60;99.90;;;;;;5013297;28;20028;-88
2022/07/05 06:09:41;;;;;;;13.48;9.68;;;17.70;99.90;;;;;;5037383;28;20026;-87
2022/07/05 06:12:08;;;;;;;12.38;9.60;;;17.70;99.90;;;;;;5046511;28;20032;-88
2022/07/05 06:14:33;;;;;;;13.25;8.93;;;17.70;99.90;;;;;;5023221;28;20024;-88
2022/07/05 06:16:59;;;;;;;11.93;9.32;;;17.70;99.90;;;;;;5036086;28;20451;-88
2022/07/05 06:19:24;;;;;;;13.50;9.93;;;17.80;99.90;;;;;;5000290;28;20029;-89
2022/07/05 06:21:50;;;;;;;12.07;9.02;;;17.80;99.90;;;;;;5016618;28;20026;-89
2022/07/05 06:24:16;;;;;;;13.65;9.80;;;17.80;99.90;;;;;;5016732;28;20025;-86
2022/07/05 06:26:41;;;;;;;11.60;8.57;;;17.80;99.90;;;;;;5000186;28;20036;-86
2022/07/05 06:29:07;;;;;;;14.88;9.55;;;17.90;99.90;;;;;;4998575;28;20443;-86
2022/07/05 06:31:33;;;;;;;12.88;9.00;;;17.90;99.90;;;;;;4999472;28;20017;-86
2022/07/05 06:33:58;;;;;;;13.15;8.98;;;17.90;99.90;;;;;;4999627;28;20462;-86
2022/07/05 06:36:24;;;;;;;11.70;8.68;;;18.00;99.90;;;;;;4999920;28;20037;-88
2022/07/05 06:38:50;;;;;;;15.73;8.38;;;18.00;99.90;;;;;;4999960;28;20467;-88
2022/07/05 06:41:15;;;;;;;11.82;7.70;;;18.00;99.90;;;;;;5000165;28;20467;-88
2022/07/05 06:43:41;;;;;;;13.02;7.43;;;18.00;99.90;;;;;;4999976;28;20175;-88
2022/07/05 06:46:06;;;;;;;12.38;8.45;;;18.10;99.90;;;;;;5002359;28;20021;-88
2022/07/05 06:48:32;;;;;;;10.10;7.70;;;18.10;99.90;;;;;;5001179;28;20352;-88
2022/07/05 06:50:58;;;;;;;10.10;7.75;;;18.10;99.90;;;;;;5001254;28;20364;-88
2022/07/05 06:53:24;;;;;;;12.60;7.88;;;18.10;99.90;;;;;;5016610;28;20048;-88
2022/07/05 06:55:50;;;;;;;9.70;7.40;;;18.20;99.90;;;;;;4997846;28;20018;-88
2022/07/05 06:58:16;;;;;;;14.30;7.88;;;18.20;99.90;;;;;;4998066;28;20025;-88
2022/07/05 07:00:43;;;;;;;11.70;7.05;;;18.20;99.90;;;;;;5013156;28;20549;-88
2022/07/05 07:03:08;;;;;;;10.00;6.50;;;18.30;99.90;;;;;;5016176;28;20034;-86
2022/07/05 07:05:34;;;;;;;8.85;6.55;;;18.30;99.90;;;;;;5024185;28;20052;-88
2022/07/05 07:10:44;;;;;;;11.48;8.07;;;18.40;99.90;;;;;;5022575;28;20037;-88
2022/07/05 07:13:10;;;;;;;11.40;7.53;;;18.40;99.90;;;;;;5016499;28;20037;-87
2022/07/05 07:15:37;;;;;;;11.25;7.43;;;18.40;99.90;;;;;;5016761;28;20049;-88
2022/07/05 07:18:03;;;;;;;8.90;6.28;;;18.40;99.90;;;;;;5016378;28;20018;-88
2022/07/05 07:20:29;;;;;;;8.80;5.40;;;18.50;99.90;;;;;;5014665;28;20037;-88
2022/07/05 07:22:55;;;;;;;9.25;5.35;;;18.50;99.90;;;;;;5000116;28;20029;-88
2022/07/05 07:25:23;;;;;;;8.48;6.20;;;18.50;99.90;;;;;;5000026;28;20028;-88
2022/07/05 07:27:50;;;;;;;7.18;5.32;;;18.60;99.90;;;;;;5016376;28;20040;-88
2022/07/05 07:30:21;;;;;;;9.63;6.75;;;18.70;99.90;;;;;;5015863;28;20418;-88
2022/07/05 07:33:15;;;;;;;7.68;6.00;;;18.70;99.90;;;;;;5001298;28;20396;-87
2022/07/05 07:35:41;;;;;;;8.43;5.03;;;18.80;99.90;;;;;;4996045;28;20077;-88
2022/07/05 07:38:07;;;;;;;7.75;5.13;;;18.80;99.90;;;;;;5014557;28;20022;-88
2022/07/05 07:40:35;;;;;;;8.82;4.82;;;18.90;99.90;;;;;;5028686;28;20030;-88
2022/07/05 07:43:14;;;;;;;6.70;5.10;;;18.90;99.90;;;;;;4998777;28;20041;-88
2022/07/05 07:45:40;;;;;;;9.27;5.55;;;19.00;99.90;;;;;;5000620;28;20041;-88
2022/07/05 07:48:06;;;;;;;8.82;5.53;;;19.10;99.90;;;;;;5013912;28;20379;-88
2022/07/05 07:51:16;;;;;;;7.45;5.15;;;19.10;99.90;;;;;;4998210;28;20053;-88
2022/07/05 07:53:42;;;;;;;7.05;5.20;;;19.20;99.90;;;;;;5035235;28;20037;-88
2022/07/05 07:56:08;;;;;;;8.00;5.90;;;19.30;99.90;;;;;;5000256;28;20543;-88
2022/07/05 07:58:36;;;;;;;8.82;5.93;;;19.30;99.90;;;;;;5016769;28;20053;-86
2022/07/05 08:01:10;;;;;;;7.00;5.32;;;19.40;99.90;;;;;;5000879;28;20072;-87
2022/07/05 08:03:42;;;;;;;8.20;5.00;;;19.40;99.70;;;;;;5001915;28;20030;-88
2022/07/05 08:06:21;;;;;;;9.75;6.35;;;19.50;99.70;;;;;;5013878;28;20022;-87
2022/07/05 08:08:47;;;;;;;8.20;5.38;;;19.50;99.70;;;;;;5017294;28;20030;-87
2022/07/05 08:11:47;;;;;;;7.47;5.78;;;19.60;99.80;;;;;;4992372;28;20026;-88
2022/07/05 08:17:20;;;;;;;8.20;5.78;;;19.80;99.70;;;;;;5031978;28;20069;-86
2022/07/05 08:23:14;;;;;;;10.15;5.40;;;19.90;99.60;;;;;;5014198;28;19928;-87
2022/07/05 08:26:10;;;;;;;8.73;3.90;;;20.00;99.40;;;;;;5010061;28;20142;-86
2022/07/05 08:38:58;;;;;;;11.43;6.47;;;20.30;98.10;;;;;;5020459;28;20076;-86
2022/07/05 08:41:49;;;;;;;9.73;5.53;;;20.30;97.40;;;;;;5019558;28;20038;-86
2022/07/05 08:59:01;;;;;;;;;;;;;;;;;;;;;
2022/07/05 09:33:52;;;;;;;;;;;;;;;;;;;;;
2022/07/05 09:40:29;;;;;;;;;;;;;;;;;;;;;
2022/07/05 09:43:30;;;;;;;5.85;3.22;;;21.20;92.60;;;;;;5027209;28;20390;-87
2022/07/05 09:46:17;;;;;;;;;;;;;;;;;;;;;
2022/07/05 09:49:34;;;;;;;8.73;3.40;;;21.20;92.10;;;;;;5035625;28;20028;-87
2022/07/05 09:52:54;;;;;;;6.93;4.15;;;21.20;91.90;;;;;;5017545;28;20065;-87
2022/07/05 09:55:40;;;;;;;;;;;;;;;;;;;;;
2022/07/05 10:01:37;;;;;;;8.60;5.03;;;21.20;92.00;;;;;;5034164;28;20033;-88
2022/07/05 10:07:34;;;;;;;7.18;4.55;;;21.30;92.60;;;;;;5019417;28;20113;-87
2022/07/05 10:20:57;;;;;;;7.38;2.67;;;21.50;91.40;;;;;;4913958;29;20162;-87
2022/07/05 10:23:39;;;;;;;;;;;21.50;91.40;;;;;;4897913;29;20051;-87
2022/07/05 10:26:15;;;;;;;6.25;2.25;;;21.60;91.50;;;;;;4924042;28;19910;-87
2022/07/05 10:56:21;;;;;;;6.68;3.75;;;22.10;88.90;;;;;;5065586;28;20071;-87
2022/07/05 10:58:48;;;;;;;6.00;2.97;;;22.10;88.50;;;;;;5070168;28;20045;-88
2022/07/05 11:05:15;;;;;;;5.50;2.15;;;22.10;87.20;;;;;;5049078;28;20124;-91
2022/07/05 11:08:28;;;;;;;;;;;;;;;;;;;;;
2022/07/05 11:11:26;;;;;;;;;;;;;;;;;;;;;
2022/07/05 11:13:58;;;;;;;3.30;2.20;;;22.00;82.70;;;;;;5054641;28;20035;-90
2022/07/05 11:16:29;;;;;;;4.60;2.20;;;21.90;83.30;;;;;;5062335;28;20017;-90
2022/07/05 11:19:06;;;;;;;;;;;21.90;84.30;;;;;;5060451;28;20017;-92
2022/07/05 11:21:32;;;;;;;3.80;2.67;;;21.90;85.10;;;;;;5043604;28;19904;-90
2022/07/05 11:24:34;;;;;;;;;;;;;;;;;;;;;
2022/07/05 11:27:09;;;;;;;5.25;2.65;;;22.00;85.90;;;;;;5060908;28;20016;-92
2022/07/05 11:29:43;;;;;;;8.70;3.22;;;22.10;85.60;;;;;;5056115;28;20461;-91
2022/07/05 11:32:11;;;;;;;4.78;2.47;;;22.20;85.40;;;;;;5061663;28;20041;-94
2022/07/05 11:35:03;;;;;;;8.95;3.70;;;22.20;82.70;;;;;;5048203;28;20064;-94
2022/07/05 11:38:33;;;;;;;;;;;;;;;;;;;;;
2022/07/05 11:41:18;;;;;;;4.18;1.60;;;22.20;82.70;;;;;;5019378;28;20048;-94
2022/07/05 11:43:54;;;;;;;4.85;1.60;;;22.30;82.40;;;;;;5016635;28;20093;-91
2022/07/05 11:46:23;;;;;;;5.32;1.88;;;22.30;80.80;;;;;;5043746;28;20086;-92
2022/07/05 11:48:56;;;;;;;3.80;1.70;;;22.30;79.70;;;;;;5044012;28;20051;-91
2022/07/05 11:51:21;;;;;;;2.58;1.40;;;22.30;80.20;;;;;;5052128;28;20033;-92
2022/07/05 11:53:50;;;;;;;1.52;1.25;;;22.40;80.90;;;;;;5043185;28;20393;-94
2022/07/05 11:56:18;;;;;;;4.38;1.45;;;22.40;80.70;;;;;;5075025;28;20048;-93
2022/07/05 11:58:50;;;;;;;3.55;1.63;;;22.50;80.40;;;;;;5057183;28;20021;-94
2022/07/05 12:01:15;;;;;;;3.15;1.20;;;22.60;80.10;;;;;;5053923;28;20055;-92
2022/07/05 12:04:17;;;;;;;3.47;1.55;;;22.70;80.50;;;;;;5051601;28;20380;-94
2022/07/05 12:06:48;;;;;;;2.88;1.00;;;22.80;80.00;;;;;;5058135;28;20044;-95
2022/07/05 12:13:12;;;;;;;;;;;;;;;;;;;;;
2022/07/05 12:15:46;;;;;;;3.60;1.02;;;23.00;78.30;;;;;;5060164;28;20516;-92
2022/07/05 12:24:00;;;;;;;2.58;1.00;;;23.20;77.10;;;;;;5063099;28;20086;-90
2022/07/05 12:26:26;;;;;;;1.63;0.80;;;23.30;76.40;;;;;;5066226;28;20028;-94
2022/07/05 12:28:55;;;;;;;2.75;1.00;;;23.40;77.60;;;;;;5058362;28;20495;-93
2022/07/05 12:32:03;;;;;;;3.30;1.00;;;23.50;78.20;;;;;;5057636;28;20044;-93
2022/07/05 12:34:44;;;;;;;2.88;1.05;;;23.60;78.40;;;;;;5037479;28;20036;-91
2022/07/05 12:37:33;;;;;;;2.88;1.10;;;23.70;78.50;;;;;;5046195;28;20075;-92
2022/07/05 12:40:13;;;;;;;3.00;0.90;;;23.80;78.00;;;;;;5044531;28;20021;-92
2022/07/05 12:43:02;;;;;;;3.22;1.13;;;23.90;78.20;;;;;;5039261;28;20096;-92
2022/07/05 12:45:34;;;;;;;3.33;1.00;;;24.10;77.70;;;;;;5050083;28;20087;-93
2022/07/05 12:48:11;;;;;;;2.28;1.00;;;24.10;76.30;;;;;;5039198;28;20018;-92
2022/07/05 12:50:56;;;;;;;3.03;1.10;;;24.10;72.90;;;;;;5039506;28;20116;-90
2022/07/05 12:59:29;;;;;;;3.67;1.10;;;24.30;72.20;;;;;;5073448;28;20087;-94
2022/07/05 13:01:58;;;;;;;3.20;1.00;;;24.40;73.50;;;;;;5054592;28;20091;-92
2022/07/05 13:04:35;;;;;;;3.40;0.80;;;24.50;74.20;;;;;;5037356;28;20029;-94
2022/07/05 13:11:34;;;;;;;3.67;1.10;;;24.60;73.20;;;;;;5054006;28;20120;-94
2022/07/05 13:14:30;;;;;;;3.40;0.88;;;24.60;73.80;;;;;;5044559;28;20068;-93
2022/07/05 13:17:02;;;;;;;3.25;1.02;;;24.70;74.30;;;;;;5038696;28;20548;-93
2022/07/05 13:20:25;;;;;;;;;;;;;;;;;;;;;
2022/07/05 13:22:54;;;;;;;4.13;1.13;;;24.80;74.10;;;;;;5054475;28;20027;-93
2022/07/05 13:26:18;;;;;;;5.93;1.33;;;24.90;74.00;;;;;;5056325;28;20029;-92
2022/07/05 13:29:00;;;;;;;3.90;1.50;;;24.90;73.70;;;;;;5053699;28;20044;-92
2022/07/05 13:31:42;;;;;;;2.17;1.20;;;25.00;73.10;;;;;;5040650;28;20119;-92
2022/07/05 13:34:11;;;;;;;6.05;1.30;;;25.10;72.80;;;;;;5048242;28;20021;-92
2022/07/05 13:36:39;;;;;;;3.03;1.05;;;25.10;71.60;;;;;;5022121;28;20091;-93
2022/07/05 13:39:12;;;;;;;3.53;1.25;;;25.10;71.20;;;;;;5038337;28;20024;-91
2022/07/05 13:41:51;;;;;;;3.25;1.17;;;25.10;71.20;;;;;;5038074;28;20068;-92
2022/07/05 13:44:17;;;;;;;4.40;1.20;;;25.10;71.10;;;;;;5037925;28;20028;-93
2022/07/05 13:46:43;;;;;;;4.43;1.15;;;25.00;71.00;;;;;;5037500;28;20449;-92
2022/07/05 13:49:11;;;;;;;3.25;1.00;;;25.00;70.90;;;;;;5037704;28;20104;-92
2022/07/05 13:51:37;;;;;;;4.10;1.05;;;25.00;70.80;;;;;;5049868;28;20078;-92
2022/07/05 13:54:05;;;;;;;3.53;1.27;;;25.00;70.20;;;;;;5049265;28;20017;-93
2022/07/05 13:56:40;;;;;;;2.95;0.90;;;25.00;69.60;;;;;;5037748;28;20028;-90
2022/07/05 13:59:09;;;;;;;3.20;1.05;;;24.90;69.30;;;;;;5037319;28;20049;-91
2022/07/05 14:01:39;;;;;;;4.32;1.30;;;24.90;69.20;;;;;;5064216;28;20453;-93
2022/07/05 14:04:08;;;;;;;;;;;24.90;69.30;;;;;;5024422;28;20021;-92
2022/07/05 14:06:34;;;;;;;4.30;0.90;;;24.90;69.10;;;;;;5054821;28;19931;-92
2022/07/05 14:09:06;;;;;;;2.20;0.77;;;24.90;68.90;;;;;;5041805;28;20050;-92
2022/07/05 14:11:34;;;;;;;6.38;0.93;;;24.90;68.80;;;;;;5057834;28;20032;-91
2022/07/05 14:14:02;;;;;;;2.33;0.95;;;24.90;68.90;;;;;;5027336;28;20025;-92
2022/07/05 14:16:37;;;;;;;;;;;;;;;;;;;;;
2022/07/05 14:19:13;;;;;;;1.45;0.95;;;24.90;68.20;;;;;;5059851;28;20036;-91
2022/07/05 14:21:50;;;;;;;5.20;1.02;;;24.90;67.90;;;;;;5026901;28;20365;-91
2022/07/05 14:24:15;;;;;;;1.75;0.70;;;24.90;67.60;;;;;;5050574;28;20020;-93
2022/07/05 14:26:41;;;;;;;1.77;0.65;;;24.90;67.10;;;;;;5024290;28;20025;-90
2022/07/05 14:29:41;;;;;;;3.40;1.13;;;24.90;67.00;;;;;;5046329;28;20032;-93
2022/07/05 14:32:07;;;;;;;3.03;0.93;;;24.90;67.00;;;;;;5070889;28;20033;-92
2022/07/05 14:34:33;;;;;;;2.13;0.90;;;24.90;66.00;;;;;;5044236;28;20036;-91
2022/07/05 14:37:07;;;;;;;5.63;1.02;;;24.90;65.50;;;;;;5046888;28;20491;-92
2022/07/05 14:39:33;;;;;;;2.35;0.95;;;24.90;65.10;;;;;;5028008;28;20370;-91
2022/07/05 14:42:02;;;;;;;2.28;0.82;;;24.80;65.00;;;;;;5047823;28;20029;-93
2022/07/05 14:44:28;;;;;;;1.90;0.90;;;24.80;64.30;;;;;;5044731;28;20028;-91
2022/07/05 14:46:54;;;;;;;1.92;0.80;;;24.80;64.00;;;;;;5056809;28;20025;-91
2022/07/05 14:52:08;;;;;;;2.35;0.90;;;24.90;64.10;;;;;;5054148;28;20052;-91
2022/07/05 14:54:34;;;;;;;3.78;0.80;;;24.90;64.60;;;;;;5037082;28;20049;-88
2022/07/05 14:57:05;;;;;;;3.40;0.80;;;24.90;64.40;;;;;;5079661;28;20033;-92
2022/07/05 14:59:34;;;;;;;2.22;0.98;;;25.00;64.40;;;;;;5047981;28;20044;-80
2022/07/05 15:01:59;;;;;;;1.63;0.80;;;25.10;64.60;;;;;;5076284;28;20033;-81
2022/07/05 15:04:25;;;;;;;1.13;0.70;;;25.10;64.20;;;;;;5067918;28;20059;-81
2022/07/05 15:06:51;;;;;;;2.05;0.65;;;25.20;64.40;;;;;;5034344;28;20029;-81
2022/07/05 15:09:17;;;;;;;2.55;0.80;;;25.30;64.40;;;;;;5034578;28;20078;-82
2022/07/05 15:11:43;;;;;;;2.30;0.90;;;25.30;63.90;;;;;;5067713;28;20037;-82
2022/07/05 15:14:09;;;;;;;1.75;0.70;;;25.40;63.00;;;;;;5034025;28;20070;-82
2022/07/05 15:16:36;;;;;;;1.88;0.93;;;25.40;62.40;;;;;;5050510;28;20021;-82
2022/07/05 15:19:02;;;;;;;3.10;0.80;;;25.50;61.90;;;;;;5067310;28;20495;-81
2022/07/05 15:21:29;;;;;;;1.83;0.88;;;25.50;61.70;;;;;;5051503;28;20043;-86
2022/07/05 15:23:56;;;;;;;3.00;0.98;;;25.50;61.60;;;;;;5065835;28;20043;-87
2022/07/05 15:26:27;;;;;;;1.42;0.80;;;25.50;61.30;;;;;;5068209;28;20054;-87
2022/07/05 15:29:06;;;;;;;2.47;0.63;;;25.60;60.90;;;;;;5040917;28;20036;-81
2022/07/05 15:31:33;;;;;;;2.40;0.90;;;25.60;60.80;;;;;;5048429;28;20028;-81
2022/07/05 15:33:59;;;;;;;4.15;1.00;;;25.60;60.50;;;;;;5049722;28;20024;-81
2022/07/05 15:36:25;;;;;;;1.05;0.68;;;25.60;60.30;;;;;;5038299;28;20372;-80
2022/07/05 15:38:54;;;;;;;1.45;0.65;;;25.60;60.20;;;;;;5066813;28;20033;-80
2022/07/05 15:41:20;;;;;;;2.97;0.90;;;25.60;59.80;;;;;;5018769;28;20465;-80
2022/07/05 15:43:49;;;;;;;3.22;0.70;;;25.60;59.70;;;;;;5071526;28;20539;-79
2022/07/05 15:46:20;;;;;;;2.72;0.90;;;25.60;59.90;;;;;;5020971;28;20497;-86
2022/07/05 15:48:48;;;;;;;3.10;0.73;;;25.60;59.50;;;;;;5055081;28;20151;-83
2022/07/05 15:51:17;;;;;;;1.60;0.70;;;25.60;59.40;;;;;;5022683;28;20033;-86